Beach Haven, NJ (08008)

12:39 PM EDT on August 30, 2015 (GMT -0400)
Beach Arlington | | Change Station
CLOSE
Current Station
Personal Weather Station
Location: Ship Bottom, NJ
Elevation: 12 ft
Nearby Weather Stations

Elev 12 ft 39.64 °N, 74.18 °W | Updated 23 seconds ago

Clear
Clear
81.0 °F
Feels Like 85 °F
N
6.0
Wind Variable Wind from SW
Gusts 13.0 mph

Today
High -- | Low -- °F
--% Chance of Precip.
Yesterday
High -- | Low -- °F
Precip. -- in
6:22 AM 7:31 PM
Full, 99% visible
Pressure 30.10 in
Visibility 10.0 miles
Clouds Clear
Heat Index 85 °F
Dew Point 71 °F
Humidity 71%
Rainfall 0.00 in
Snow Depth Not available.
UV 9 out of 12
Pollen 9.80 out of 12
Air Quality Not available.
Flu Activity Not available.
METAR KMJX 301635Z AUTO 18005KT 10SM CLR 31/18 A3010 RMK AO1
Pressure 30.10 in
Visibility 10.0 miles
Clouds Clear
Heat Index 85 °F
Dew Point 71 °F
Humidity 71%
Rainfall 0.00 in
Snow Depth Not available.
UV 9 out of 12
Pollen 9.80 out of 12
Air Quality Not available.
Flu Activity Not available.
METAR KMJX 301635Z AUTO 18005KT 10SM CLR 31/18 A3010 RMK AO1

10-Day Weather Forecast

×

Almanac

Astronomy

Aug. 30, 2015 Rise Set
Actual Time
Civil Twilight
Nautical Twilight
Astronomical Twilight
Moon
Length of Visible Light
Length of Day
Tomorrow will be .
, % of the Moon is Illuminated

Today's Extremes

State Highs State Lows

Community

WunderPhotos

Upload Photos

1,851,008 photos uploaded!

WunderBlogs® & News

Nearby

Air Quality

  Air Quality AQ Index Pollutant
Not available.

Snow Depth

Station Depth Elevation

Earthquake Activity

City Distance Mag. Time & Date
Minimum magnitude displayed is 2.5.

Coastal Water Temperatures

Place Temperature

Stations

Nearby Weather Stations

Station Location Temp. Windchill Dew Point Humidity Wind Precip. Elev Updated Type